sensor_id;sensor_type;location;lat;lon;timestamp;P1;durP1;ratioP1;P2;durP2;ratioP2
56321;SDS011;42227;6.376;-10.782;2023-07-13T00:01:05;12.65;;;8.55;;
56321;SDS011;42227;6.376;-10.782;2023-07-13T00:03:34;13.43;;;9.73;;
56321;SDS011;42227;6.376;-10.782;2023-07-13T00:06:03;16.77;;;9.57;;
56321;SDS011;42227;6.376;-10.782;2023-07-13T00:08:34;12.50;;;10.38;;
56321;SDS011;42227;6.376;-10.782;2023-07-13T00:11:03;19.13;;;12.07;;
56321;SDS011;42227;6.376;-10.782;2023-07-13T00:13:32;16.63;;;10.85;;
56321;SDS011;42227;6.376;-10.782;2023-07-13T00:16:01;10.70;;;9.60;;
56321;SDS011;42227;6.376;-10.782;2023-07-13T00:18:30;14.88;;;9.73;;
56321;SDS011;42227;6.376;-10.782;2023-07-13T00:20:59;12.35;;;7.97;;
56321;SDS011;42227;6.376;-10.782;2023-07-13T00:23:27;10.57;;;7.43;;
56321;SDS011;42227;6.376;-10.782;2023-07-13T00:25:56;12.70;;;8.23;;
56321;SDS011;42227;6.376;-10.782;2023-07-13T00:28:25;11.30;;;7.00;;
56321;SDS011;42227;6.376;-10.782;2023-07-13T00:30:53;8.52;;;6.72;;
56321;SDS011;42227;6.376;-10.782;2023-07-13T00:33:23;12.30;;;8.90;;
56321;SDS011;42227;6.376;-10.782;2023-07-13T00:35:52;12.45;;;8.00;;
56321;SDS011;42227;6.376;-10.782;2023-07-13T00:38:23;10.13;;;7.50;;
56321;SDS011;42227;6.376;-10.782;2023-07-13T00:40:51;10.40;;;9.10;;
56321;SDS011;42227;6.376;-10.782;2023-07-13T00:43:21;12.52;;;9.77;;
56321;SDS011;42227;6.376;-10.782;2023-07-13T00:48:21;14.32;;;8.70;;
56321;SDS011;42227;6.376;-10.782;2023-07-13T00:50:53;11.45;;;9.35;;
56321;SDS011;42227;6.376;-10.782;2023-07-13T00:53:28;9.90;;;8.57;;
56321;SDS011;42227;6.376;-10.782;2023-07-13T00:55:59;9.57;;;8.30;;
56321;SDS011;42227;6.376;-10.782;2023-07-13T00:58:28;11.82;;;8.30;;
56321;SDS011;42227;6.376;-10.782;2023-07-13T01:00:57;12.88;;;9.13;;
56321;SDS011;42227;6.376;-10.782;2023-07-13T01:03:26;15.55;;;9.25;;
56321;SDS011;42227;6.376;-10.782;2023-07-13T01:05:55;12.65;;;8.85;;
56321;SDS011;42227;6.376;-10.782;2023-07-13T01:08:25;15.32;;;8.40;;
56321;SDS011;42227;6.376;-10.782;2023-07-13T01:10:54;12.38;;;9.02;;
56321;SDS011;42227;6.376;-10.782;2023-07-13T01:13:24;14.82;;;10.93;;
56321;SDS011;42227;6.376;-10.782;2023-07-13T01:15:55;12.68;;;10.27;;
56321;SDS011;42227;6.376;-10.782;2023-07-13T01:18:28;9.57;;;7.72;;
56321;SDS011;42227;6.376;-10.782;2023-07-13T01:21:01;15.80;;;9.93;;
56321;SDS011;42227;6.376;-10.782;2023-07-13T01:23:32;11.85;;;8.32;;
56321;SDS011;42227;6.376;-10.782;2023-07-13T01:26:00;14.32;;;9.63;;
56321;SDS011;42227;6.376;-10.782;2023-07-13T01:28:29;12.32;;;7.93;;
56321;SDS011;42227;6.376;-10.782;2023-07-13T01:30:59;34.08;;;26.98;;
56321;SDS011;42227;6.376;-10.782;2023-07-13T01:33:28;14.20;;;11.85;;
56321;SDS011;42227;6.376;-10.782;2023-07-13T01:35:57;12.50;;;9.70;;
56321;SDS011;42227;6.376;-10.782;2023-07-13T01:38:25;12.27;;;9.98;;
56321;SDS011;42227;6.376;-10.782;2023-07-13T01:40:54;13.02;;;7.85;;
56321;SDS011;42227;6.376;-10.782;2023-07-13T01:43:24;11.60;;;9.70;;
56321;SDS011;42227;6.376;-10.782;2023-07-13T01:45:53;10.85;;;8.88;;
56321;SDS011;42227;6.376;-10.782;2023-07-13T01:51:03;11.90;;;9.85;;
56321;SDS011;42227;6.376;-10.782;2023-07-13T01:53:32;11.98;;;9.35;;
56321;SDS011;42227;6.376;-10.782;2023-07-13T01:56:01;12.73;;;9.82;;
56321;SDS011;42227;6.376;-10.782;2023-07-13T01:58:29;10.70;;;8.90;;
56321;SDS011;42227;6.376;-10.782;2023-07-13T02:00:58;18.38;;;10.85;;
56321;SDS011;42227;6.376;-10.782;2023-07-13T02:03:27;11.80;;;10.13;;
56321;SDS011;42227;6.376;-10.782;2023-07-13T02:05:57;11.50;;;10.02;;
56321;SDS011;42227;6.376;-10.782;2023-07-13T02:08:26;15.23;;;9.68;;
56321;SDS011;42227;6.376;-10.782;2023-07-13T02:10:55;11.15;;;8.68;;
56321;SDS011;42227;6.376;-10.782;2023-07-13T02:13:23;12.02;;;9.65;;
56321;SDS011;42227;6.376;-10.782;2023-07-13T02:15:52;14.05;;;10.30;;
56321;SDS011;42227;6.376;-10.782;2023-07-13T02:18:21;12.93;;;10.30;;
56321;SDS011;42227;6.376;-10.782;2023-07-13T02:20:49;17.95;;;11.82;;
56321;SDS011;42227;6.376;-10.782;2023-07-13T02:23:18;13.95;;;9.80;;
56321;SDS011;42227;6.376;-10.782;2023-07-13T02:25:46;13.15;;;9.88;;
56321;SDS011;42227;6.376;-10.782;2023-07-13T02:28:15;12.25;;;9.68;;
56321;SDS011;42227;6.376;-10.782;2023-07-13T02:30:44;9.88;;;8.82;;
56321;SDS011;42227;6.376;-10.782;2023-07-13T02:33:12;12.35;;;10.43;;
56321;SDS011;42227;6.376;-10.782;2023-07-13T02:35:41;13.98;;;10.23;;
56321;SDS011;42227;6.376;-10.782;2023-07-13T02:38:09;22.83;;;18.17;;
56321;SDS011;42227;6.376;-10.782;2023-07-13T02:40:38;49.70;;;34.13;;
56321;SDS011;42227;6.376;-10.782;2023-07-13T02:43:07;20.13;;;13.20;;
56321;SDS011;42227;6.376;-10.782;2023-07-13T02:45:35;15.50;;;10.07;;
56321;SDS011;42227;6.376;-10.782;2023-07-13T02:48:04;13.13;;;8.95;;
56321;SDS011;42227;6.376;-10.782;2023-07-13T02:50:33;14.15;;;9.15;;
56321;SDS011;42227;6.376;-10.782;2023-07-13T02:53:01;21.42;;;9.82;;
56321;SDS011;42227;6.376;-10.782;2023-07-13T02:55:30;17.90;;;10.18;;
56321;SDS011;42227;6.376;-10.782;2023-07-13T02:57:59;14.02;;;10.95;;
56321;SDS011;42227;6.376;-10.782;2023-07-13T03:00:27;14.20;;;10.30;;
56321;SDS011;42227;6.376;-10.782;2023-07-13T03:02:56;13.38;;;9.65;;
56321;SDS011;42227;6.376;-10.782;2023-07-13T03:05:25;16.45;;;9.20;;
56321;SDS011;42227;6.376;-10.782;2023-07-13T03:07:55;10.85;;;9.07;;
56321;SDS011;42227;6.376;-10.782;2023-07-13T03:10:23;16.80;;;8.98;;
56321;SDS011;42227;6.376;-10.782;2023-07-13T03:12:52;11.85;;;8.18;;
56321;SDS011;42227;6.376;-10.782;2023-07-13T03:15:24;12.00;;;8.88;;
56321;SDS011;42227;6.376;-10.782;2023-07-13T03:17:54;18.02;;;9.35;;
56321;SDS011;42227;6.376;-10.782;2023-07-13T03:20:23;16.90;;;8.63;;
56321;SDS011;42227;6.376;-10.782;2023-07-13T03:22:54;15.95;;;9.75;;
56321;SDS011;42227;6.376;-10.782;2023-07-13T03:25:26;15.75;;;10.48;;
56321;SDS011;42227;6.376;-10.782;2023-07-13T03:27:54;15.30;;;10.27;;
56321;SDS011;42227;6.376;-10.782;2023-07-13T03:30:22;13.73;;;11.77;;
56321;SDS011;42227;6.376;-10.782;2023-07-13T03:32:51;19.58;;;11.45;;
56321;SDS011;42227;6.376;-10.782;2023-07-13T03:35:20;14.13;;;9.82;;
56321;SDS011;42227;6.376;-10.782;2023-07-13T03:37:48;14.65;;;11.73;;
56321;SDS011;42227;6.376;-10.782;2023-07-13T03:40:19;17.40;;;12.73;;
56321;SDS011;42227;6.376;-10.782;2023-07-13T03:42:48;15.93;;;12.35;;
56321;SDS011;42227;6.376;-10.782;2023-07-13T03:45:18;16.10;;;12.15;;
56321;SDS011;42227;6.376;-10.782;2023-07-13T03:47:47;18.38;;;13.07;;
56321;SDS011;42227;6.376;-10.782;2023-07-13T03:50:16;19.13;;;12.80;;
56321;SDS011;42227;6.376;-10.782;2023-07-13T03:52:45;22.38;;;13.10;;
56321;SDS011;42227;6.376;-10.782;2023-07-13T03:55:15;20.77;;;13.57;;
56321;SDS011;42227;6.376;-10.782;2023-07-13T03:57:44;14.30;;;12.15;;
56321;SDS011;42227;6.376;-10.782;2023-07-13T04:00:13;16.02;;;11.40;;
56321;SDS011;42227;6.376;-10.782;2023-07-13T04:02:42;12.85;;;10.43;;
56321;SDS011;42227;6.376;-10.782;2023-07-13T04:05:10;16.20;;;11.88;;
56321;SDS011;42227;6.376;-10.782;2023-07-13T04:07:39;14.73;;;11.30;;
56321;SDS011;42227;6.376;-10.782;2023-07-13T04:10:07;13.52;;;10.60;;
56321;SDS011;42227;6.376;-10.782;2023-07-13T04:12:36;11.35;;;8.75;;
56321;SDS011;42227;6.376;-10.782;2023-07-13T04:15:04;11.45;;;9.48;;
56321;SDS011;42227;6.376;-10.782;2023-07-13T04:17:33;12.90;;;8.75;;
56321;SDS011;42227;6.376;-10.782;2023-07-13T04:20:02;12.30;;;10.02;;
56321;SDS011;42227;6.376;-10.782;2023-07-13T04:22:31;12.50;;;9.55;;
56321;SDS011;42227;6.376;-10.782;2023-07-13T04:25:00;12.52;;;10.02;;
56321;SDS011;42227;6.376;-10.782;2023-07-13T04:27:28;13.55;;;10.80;;
56321;SDS011;42227;6.376;-10.782;2023-07-13T04:29:57;15.90;;;11.27;;
56321;SDS011;42227;6.376;-10.782;2023-07-13T04:32:25;21.92;;;13.48;;
56321;SDS011;42227;6.376;-10.782;2023-07-13T04:34:54;19.70;;;15.68;;
56321;SDS011;42227;6.376;-10.782;2023-07-13T04:37:22;21.73;;;16.65;;
56321;SDS011;42227;6.376;-10.782;2023-07-13T04:39:51;20.27;;;17.20;;
56321;SDS011;42227;6.376;-10.782;2023-07-13T04:42:20;29.05;;;21.50;;
56321;SDS011;42227;6.376;-10.782;2023-07-13T04:44:49;23.40;;;17.27;;
56321;SDS011;42227;6.376;-10.782;2023-07-13T04:47:18;22.88;;;14.02;;
56321;SDS011;42227;6.376;-10.782;2023-07-13T04:49:47;17.95;;;14.07;;
56321;SDS011;42227;6.376;-10.782;2023-07-13T04:52:15;18.00;;;12.25;;
56321;SDS011;42227;6.376;-10.782;2023-07-13T04:54:44;16.10;;;12.90;;
56321;SDS011;42227;6.376;-10.782;2023-07-13T04:57:12;21.80;;;14.02;;
56321;SDS011;42227;6.376;-10.782;2023-07-13T04:59:41;19.98;;;15.50;;
56321;SDS011;42227;6.376;-10.782;2023-07-13T05:02:09;22.42;;;15.35;;
56321;SDS011;42227;6.376;-10.782;2023-07-13T05:04:38;20.35;;;14.13;;
56321;SDS011;42227;6.376;-10.782;2023-07-13T05:07:06;20.80;;;14.82;;
56321;SDS011;42227;6.376;-10.782;2023-07-13T05:09:35;18.55;;;14.98;;
56321;SDS011;42227;6.376;-10.782;2023-07-13T05:12:03;18.58;;;14.60;;
56321;SDS011;42227;6.376;-10.782;2023-07-13T05:14:32;18.35;;;15.90;;
56321;SDS011;42227;6.376;-10.782;2023-07-13T05:17:01;21.02;;;15.93;;
56321;SDS011;42227;6.376;-10.782;2023-07-13T05:19:29;23.23;;;14.75;;
56321;SDS011;42227;6.376;-10.782;2023-07-13T05:21:58;17.42;;;15.38;;
56321;SDS011;42227;6.376;-10.782;2023-07-13T05:24:27;16.90;;;13.38;;
56321;SDS011;42227;6.376;-10.782;2023-07-13T05:26:55;15.80;;;14.10;;
56321;SDS011;42227;6.376;-10.782;2023-07-13T05:29:24;17.95;;;13.23;;
56321;SDS011;42227;6.376;-10.782;2023-07-13T05:31:52;18.13;;;13.27;;
56321;SDS011;42227;6.376;-10.782;2023-07-13T05:34:21;17.73;;;13.75;;
56321;SDS011;42227;6.376;-10.782;2023-07-13T05:36:50;15.82;;;13.52;;
56321;SDS011;42227;6.376;-10.782;2023-07-13T05:39:19;13.10;;;11.40;;
56321;SDS011;42227;6.376;-10.782;2023-07-13T05:41:47;17.60;;;14.13;;
56321;SDS011;42227;6.376;-10.782;2023-07-13T05:44:16;14.43;;;12.93;;
56321;SDS011;42227;6.376;-10.782;2023-07-13T05:46:44;13.80;;;11.90;;
56321;SDS011;42227;6.376;-10.782;2023-07-13T05:49:13;15.63;;;13.73;;
56321;SDS011;42227;6.376;-10.782;2023-07-13T05:51:41;18.52;;;14.00;;
56321;SDS011;42227;6.376;-10.782;2023-07-13T05:54:10;18.17;;;13.95;;
56321;SDS011;42227;6.376;-10.782;2023-07-13T05:56:39;20.40;;;14.40;;
56321;SDS011;42227;6.376;-10.782;2023-07-13T05:59:07;20.08;;;14.18;;
56321;SDS011;42227;6.376;-10.782;2023-07-13T06:01:35;19.08;;;14.20;;
56321;SDS011;42227;6.376;-10.782;2023-07-13T06:04:04;17.50;;;13.98;;
56321;SDS011;42227;6.376;-10.782;2023-07-13T06:06:32;17.02;;;13.65;;
56321;SDS011;42227;6.376;-10.782;2023-07-13T06:09:01;16.92;;;14.25;;
56321;SDS011;42227;6.376;-10.782;2023-07-13T06:11:30;16.80;;;15.10;;
56321;SDS011;42227;6.376;-10.782;2023-07-13T06:13:58;17.90;;;13.52;;
56321;SDS011;42227;6.376;-10.782;2023-07-13T06:16:27;16.05;;;13.43;;
56321;SDS011;42227;6.376;-10.782;2023-07-13T06:18:55;14.57;;;11.90;;
56321;SDS011;42227;6.376;-10.782;2023-07-13T06:21:24;23.73;;;12.77;;
56321;SDS011;42227;6.376;-10.782;2023-07-13T06:23:52;15.60;;;12.60;;
56321;SDS011;42227;6.376;-10.782;2023-07-13T06:26:21;17.30;;;13.77;;
56321;SDS011;42227;6.376;-10.782;2023-07-13T06:28:50;13.75;;;12.20;;
56321;SDS011;42227;6.376;-10.782;2023-07-13T06:31:18;17.27;;;12.93;;
56321;SDS011;42227;6.376;-10.782;2023-07-13T06:33:47;16.55;;;12.32;;
56321;SDS011;42227;6.376;-10.782;2023-07-13T06:36:15;15.25;;;13.20;;
56321;SDS011;42227;6.376;-10.782;2023-07-13T06:38:44;17.52;;;14.32;;
56321;SDS011;42227;6.376;-10.782;2023-07-13T06:41:12;15.80;;;11.77;;
56321;SDS011;42227;6.376;-10.782;2023-07-13T06:43:41;16.40;;;13.85;;
56321;SDS011;42227;6.376;-10.782;2023-07-13T06:46:10;14.90;;;13.27;;
56321;SDS011;42227;6.376;-10.782;2023-07-13T06:48:38;14.05;;;12.75;;
56321;SDS011;42227;6.376;-10.782;2023-07-13T06:51:07;15.02;;;13.43;;
56321;SDS011;42227;6.376;-10.782;2023-07-13T06:53:37;23.63;;;15.13;;
56321;SDS011;42227;6.376;-10.782;2023-07-13T06:56:06;19.02;;;14.80;;
56321;SDS011;42227;6.376;-10.782;2023-07-13T06:58:34;18.75;;;15.10;;
56321;SDS011;42227;6.376;-10.782;2023-07-13T07:01:03;22.33;;;14.95;;
56321;SDS011;42227;6.376;-10.782;2023-07-13T07:03:34;17.30;;;15.53;;
56321;SDS011;42227;6.376;-10.782;2023-07-13T07:06:52;19.23;;;14.98;;
56321;SDS011;42227;6.376;-10.782;2023-07-13T07:09:24;22.45;;;14.57;;
56321;SDS011;42227;6.376;-10.782;2023-07-13T07:11:52;17.38;;;14.80;;
56321;SDS011;42227;6.376;-10.782;2023-07-13T07:14:30;20.23;;;17.98;;
56321;SDS011;42227;6.376;-10.782;2023-07-13T07:16:59;20.02;;;15.07;;
56321;SDS011;42227;6.376;-10.782;2023-07-13T07:19:29;19.65;;;16.90;;
56321;SDS011;42227;6.376;-10.782;2023-07-13T07:21:58;25.65;;;15.68;;
56321;SDS011;42227;6.376;-10.782;2023-07-13T07:24:27;24.80;;;16.52;;
56321;SDS011;42227;6.376;-10.782;2023-07-13T07:26:55;22.58;;;16.40;;
56321;SDS011;42227;6.376;-10.782;2023-07-13T07:29:26;18.77;;;16.87;;
56321;SDS011;42227;6.376;-10.782;2023-07-13T07:32:01;20.33;;;16.20;;
56321;SDS011;42227;6.376;-10.782;2023-07-13T07:34:49;18.87;;;14.53;;
56321;SDS011;42227;6.376;-10.782;2023-07-13T07:37:18;25.23;;;16.90;;
56321;SDS011;42227;6.376;-10.782;2023-07-13T07:39:50;20.33;;;15.87;;
56321;SDS011;42227;6.376;-10.782;2023-07-13T07:42:38;20.45;;;15.85;;
56321;SDS011;42227;6.376;-10.782;2023-07-13T07:45:07;21.83;;;16.58;;
56321;SDS011;42227;6.376;-10.782;2023-07-13T07:47:36;20.70;;;16.17;;
56321;SDS011;42227;6.376;-10.782;2023-07-13T07:50:05;18.65;;;15.98;;
56321;SDS011;42227;6.376;-10.782;2023-07-13T07:52:34;21.50;;;15.95;;
56321;SDS011;42227;6.376;-10.782;2023-07-13T07:55:03;19.45;;;15.43;;
56321;SDS011;42227;6.376;-10.782;2023-07-13T07:57:37;22.77;;;15.70;;
56321;SDS011;42227;6.376;-10.782;2023-07-13T08:00:09;22.60;;;15.40;;
56321;SDS011;42227;6.376;-10.782;2023-07-13T08:02:41;16.58;;;14.65;;
56321;SDS011;42227;6.376;-10.782;2023-07-13T08:05:14;19.13;;;15.57;;
56321;SDS011;42227;6.376;-10.782;2023-07-13T08:07:46;25.90;;;17.88;;
56321;SDS011;42227;6.376;-10.782;2023-07-13T08:10:15;24.00;;;18.85;;
56321;SDS011;42227;6.376;-10.782;2023-07-13T08:12:44;25.40;;;18.20;;
56321;SDS011;42227;6.376;-10.782;2023-07-13T08:15:32;22.52;;;17.40;;
56321;SDS011;42227;6.376;-10.782;2023-07-13T08:18:01;22.65;;;18.00;;
56321;SDS011;42227;6.376;-10.782;2023-07-13T08:20:30;22.48;;;17.85;;
56321;SDS011;42227;6.376;-10.782;2023-07-13T08:22:58;25.52;;;18.17;;
56321;SDS011;42227;6.376;-10.782;2023-07-13T08:25:27;19.63;;;17.58;;
56321;SDS011;42227;6.376;-10.782;2023-07-13T08:27:55;24.15;;;19.30;;
56321;SDS011;42227;6.376;-10.782;2023-07-13T08:30:24;27.98;;;20.30;;
56321;SDS011;42227;6.376;-10.782;2023-07-13T08:32:53;26.15;;;20.88;;
56321;SDS011;42227;6.376;-10.782;2023-07-13T08:37:43;66.18;;;59.40;;
56321;SDS011;42227;6.376;-10.782;2023-07-13T08:40:11;33.10;;;29.25;;
56321;SDS011;42227;6.376;-10.782;2023-07-13T08:42:44;24.00;;;20.75;;
56321;SDS011;42227;6.376;-10.782;2023-07-13T08:45:30;20.48;;;14.93;;
56321;SDS011;42227;6.376;-10.782;2023-07-13T08:48:50;20.90;;;15.95;;
56321;SDS011;42227;6.376;-10.782;2023-07-13T08:54:01;12.48;;;10.80;;
56321;SDS011;42227;6.376;-10.782;2023-07-13T08:56:32;13.20;;;9.55;;
56321;SDS011;42227;6.376;-10.782;2023-07-13T08:59:04;13.32;;;10.10;;
56321;SDS011;42227;6.376;-10.782;2023-07-13T09:04:25;12.60;;;10.38;;
56321;SDS011;42227;6.376;-10.782;2023-07-13T09:07:05;11.27;;;9.90;;
56321;SDS011;42227;6.376;-10.782;2023-07-13T09:15:49;13.20;;;11.80;;
56321;SDS011;42227;6.376;-10.782;2023-07-13T09:18:30;17.90;;;12.00;;
56321;SDS011;42227;6.376;-10.782;2023-07-13T09:21:23;17.33;;;12.30;;
56321;SDS011;42227;6.376;-10.782;2023-07-13T09:23:58;15.27;;;11.93;;
56321;SDS011;42227;6.376;-10.782;2023-07-13T09:26:48;16.10;;;11.50;;
56321;SDS011;42227;6.376;-10.782;2023-07-13T09:29:21;14.70;;;9.63;;
56321;SDS011;42227;6.376;-10.782;2023-07-13T09:31:57;13.40;;;10.48;;
56321;SDS011;42227;6.376;-10.782;2023-07-13T09:34:30;14.70;;;11.82;;
56321;SDS011;42227;6.376;-10.782;2023-07-13T09:37:01;15.60;;;11.30;;
56321;SDS011;42227;6.376;-10.782;2023-07-13T09:39:39;17.55;;;11.68;;
56321;SDS011;42227;6.376;-10.782;2023-07-13T09:47:27;20.63;;;14.82;;
56321;SDS011;42227;6.376;-10.782;2023-07-13T09:50:02;21.48;;;14.32;;
56321;SDS011;42227;6.376;-10.782;2023-07-13T09:52:43;31.25;;;17.20;;
56321;SDS011;42227;6.376;-10.782;2023-07-13T09:55:23;17.55;;;14.30;;
56321;SDS011;42227;6.376;-10.782;2023-07-13T09:58:04;24.38;;;15.05;;
56321;SDS011;42227;6.376;-10.782;2023-07-13T10:00:41;23.20;;;17.02;;
56321;SDS011;42227;6.376;-10.782;2023-07-13T10:03:19;18.33;;;15.30;;
56321;SDS011;42227;6.376;-10.782;2023-07-13T10:05:50;22.70;;;16.58;;
56321;SDS011;42227;6.376;-10.782;2023-07-13T10:08:25;20.85;;;16.05;;
56321;SDS011;42227;6.376;-10.782;2023-07-13T10:10:59;22.60;;;14.25;;
56321;SDS011;42227;6.376;-10.782;2023-07-13T10:13:33;12.98;;;11.43;;
56321;SDS011;42227;6.376;-10.782;2023-07-13T10:16:10;22.90;;;15.05;;
56321;SDS011;42227;6.376;-10.782;2023-07-13T10:18:48;17.60;;;13.05;;
56321;SDS011;42227;6.376;-10.782;2023-07-13T10:21:21;11.35;;;9.45;;
56321;SDS011;42227;6.376;-10.782;2023-07-13T10:24:15;16.23;;;11.32;;
56321;SDS011;42227;6.376;-10.782;2023-07-13T10:26:55;13.88;;;10.63;;
56321;SDS011;42227;6.376;-10.782;2023-07-13T10:29:48;12.77;;;8.82;;
56321;SDS011;42227;6.376;-10.782;2023-07-13T10:32:42;13.00;;;7.45;;
56321;SDS011;42227;6.376;-10.782;2023-07-13T10:35:13;9.77;;;7.10;;
56321;SDS011;42227;6.376;-10.782;2023-07-13T10:37:52;12.50;;;9.15;;
56321;SDS011;42227;6.376;-10.782;2023-07-13T10:40:30;12.48;;;9.13;;
56321;SDS011;42227;6.376;-10.782;2023-07-13T10:43:04;11.85;;;9.40;;
56321;SDS011;42227;6.376;-10.782;2023-07-13T10:45:41;14.57;;;10.25;;
56321;SDS011;42227;6.376;-10.782;2023-07-13T10:48:12;12.30;;;9.60;;
56321;SDS011;42227;6.376;-10.782;2023-07-13T10:50:44;12.95;;;9.43;;
56321;SDS011;42227;6.376;-10.782;2023-07-13T10:53:33;11.30;;;8.02;;
56321;SDS011;42227;6.376;-10.782;2023-07-13T10:56:04;10.50;;;7.97;;
56321;SDS011;42227;6.376;-10.782;2023-07-13T10:59:02;17.00;;;8.88;;
56321;SDS011;42227;6.376;-10.782;2023-07-13T11:01:41;12.90;;;9.77;;
56321;SDS011;42227;6.376;-10.782;2023-07-13T11:04:21;17.27;;;10.60;;
56321;SDS011;42227;6.376;-10.782;2023-07-13T11:06:59;12.85;;;8.95;;
56321;SDS011;42227;6.376;-10.782;2023-07-13T11:09:46;15.15;;;12.40;;
56321;SDS011;42227;6.376;-10.782;2023-07-13T11:22:46;18.55;;;13.43;;
56321;SDS011;42227;6.376;-10.782;2023-07-13T11:30:40;19.67;;;15.25;;
56321;SDS011;42227;6.376;-10.782;2023-07-13T11:36:28;26.00;;;17.33;;
56321;SDS011;42227;6.376;-10.782;2023-07-13T11:41:45;25.00;;;18.98;;
56321;SDS011;42227;6.376;-10.782;2023-07-13T11:44:20;20.30;;;16.38;;
56321;SDS011;42227;6.376;-10.782;2023-07-13T11:46:51;23.00;;;17.00;;
56321;SDS011;42227;6.376;-10.782;2023-07-13T11:49:23;18.17;;;14.27;;
56321;SDS011;42227;6.376;-10.782;2023-07-13T11:51:53;20.40;;;15.32;;
56321;SDS011;42227;6.376;-10.782;2023-07-13T11:54:27;21.45;;;15.68;;
56321;SDS011;42227;6.376;-10.782;2023-07-13T11:57:21;20.10;;;15.25;;
56321;SDS011;42227;6.376;-10.782;2023-07-13T11:59:52;22.45;;;13.85;;
56321;SDS011;42227;6.376;-10.782;2023-07-13T12:05:08;20.20;;;13.70;;
56321;SDS011;42227;6.376;-10.782;2023-07-13T12:07:40;17.23;;;13.80;;
56321;SDS011;42227;6.376;-10.782;2023-07-13T12:12:56;21.75;;;14.98;;
56321;SDS011;42227;6.376;-10.782;2023-07-13T12:15:42;25.80;;;17.67;;
56321;SDS011;42227;6.376;-10.782;2023-07-13T12:18:31;19.05;;;13.50;;
56321;SDS011;42227;6.376;-10.782;2023-07-13T12:21:09;16.92;;;13.20;;
56321;SDS011;42227;6.376;-10.782;2023-07-13T12:23:42;21.92;;;12.93;;
56321;SDS011;42227;6.376;-10.782;2023-07-13T12:26:12;13.05;;;10.85;;
56321;SDS011;42227;6.376;-10.782;2023-07-13T12:28:48;26.58;;;11.52;;
56321;SDS011;42227;6.376;-10.782;2023-07-13T12:31:25;16.23;;;11.82;;
56321;SDS011;42227;6.376;-10.782;2023-07-13T12:34:07;21.45;;;11.05;;
56321;SDS011;42227;6.376;-10.782;2023-07-13T12:40:12;12.70;;;9.77;;
56321;SDS011;42227;6.376;-10.782;2023-07-13T12:42:28;13.30;;;10.02;;
56321;SDS011;42227;6.376;-10.782;2023-07-13T12:45:03;20.35;;;12.00;;
56321;SDS011;42227;6.376;-10.782;2023-07-13T12:47:47;13.68;;;9.60;;
56321;SDS011;42227;6.376;-10.782;2023-07-13T12:50:20;16.65;;;11.55;;
56321;SDS011;42227;6.376;-10.782;2023-07-13T12:52:54;10.80;;;9.02;;
56321;SDS011;42227;6.376;-10.782;2023-07-13T12:55:28;16.48;;;8.57;;
56321;SDS011;42227;6.376;-10.782;2023-07-13T12:57:58;8.07;;;6.18;;
56321;SDS011;42227;6.376;-10.782;2023-07-13T13:00:28;14.10;;;8.80;;
56321;SDS011;42227;6.376;-10.782;2023-07-13T13:03:05;11.95;;;6.90;;
56321;SDS011;42227;6.376;-10.782;2023-07-13T13:06:06;13.43;;;8.52;;
56321;SDS011;42227;6.376;-10.782;2023-07-13T13:08:47;15.32;;;9.57;;
56321;SDS011;42227;6.376;-10.782;2023-07-13T13:11:21;10.25;;;7.63;;
56321;SDS011;42227;6.376;-10.782;2023-07-13T13:13:51;10.60;;;8.48;;
56321;SDS011;42227;6.376;-10.782;2023-07-13T13:18:54;17.35;;;10.15;;
56321;SDS011;42227;6.376;-10.782;2023-07-13T13:21:53;16.48;;;9.88;;
56321;SDS011;42227;6.376;-10.782;2023-07-13T13:24:23;13.05;;;8.30;;
56321;SDS011;42227;6.376;-10.782;2023-07-13T13:26:54;12.30;;;8.38;;
56321;SDS011;42227;6.376;-10.782;2023-07-13T13:29:24;9.70;;;7.13;;
56321;SDS011;42227;6.376;-10.782;2023-07-13T13:31:54;13.85;;;8.45;;
56321;SDS011;42227;6.376;-10.782;2023-07-13T13:34:23;11.77;;;8.65;;
56321;SDS011;42227;6.376;-10.782;2023-07-13T13:37:03;19.40;;;8.65;;
56321;SDS011;42227;6.376;-10.782;2023-07-13T13:39:39;14.57;;;9.02;;
56321;SDS011;42227;6.376;-10.782;2023-07-13T13:42:21;15.40;;;8.73;;
56321;SDS011;42227;6.376;-10.782;2023-07-13T13:44:50;12.52;;;8.52;;
56321;SDS011;42227;6.376;-10.782;2023-07-13T13:49:57;9.45;;;7.65;;
56321;SDS011;42227;6.376;-10.782;2023-07-13T13:52:38;14.43;;;9.70;;
56321;SDS011;42227;6.376;-10.782;2023-07-13T13:57:46;14.93;;;9.80;;
56321;SDS011;42227;6.376;-10.782;2023-07-13T14:00:16;15.43;;;9.45;;
56321;SDS011;42227;6.376;-10.782;2023-07-13T14:02:47;14.93;;;10.25;;
56321;SDS011;42227;6.376;-10.782;2023-07-13T14:05:24;11.63;;;9.27;;
56321;SDS011;42227;6.376;-10.782;2023-07-13T14:07:53;15.10;;;9.57;;
56321;SDS011;42227;6.376;-10.782;2023-07-13T14:10:25;11.13;;;7.82;;
56321;SDS011;42227;6.376;-10.782;2023-07-13T14:12:55;12.37;;;7.97;;
56321;SDS011;42227;6.376;-10.782;2023-07-13T14:15:28;12.98;;;8.60;;
56321;SDS011;42227;6.376;-10.782;2023-07-13T14:17:57;8.57;;;6.18;;
56321;SDS011;42227;6.376;-10.782;2023-07-13T14:20:27;9.50;;;6.13;;
56321;SDS011;42227;6.376;-10.782;2023-07-13T14:22:55;14.40;;;9.82;;
56321;SDS011;42227;6.376;-10.782;2023-07-13T14:25:30;14.60;;;10.10;;
56321;SDS011;42227;6.376;-10.782;2023-07-13T14:28:04;11.63;;;9.20;;
56321;SDS011;42227;6.376;-10.782;2023-07-13T14:30:46;7.80;;;6.18;;
56321;SDS011;42227;6.376;-10.782;2023-07-13T14:33:15;11.00;;;8.02;;
56321;SDS011;42227;6.376;-10.782;2023-07-13T14:35:58;12.65;;;7.47;;
56321;SDS011;42227;6.376;-10.782;2023-07-13T14:38:44;15.88;;;8.93;;
56321;SDS011;42227;6.376;-10.782;2023-07-13T14:41:13;11.02;;;8.57;;
56321;SDS011;42227;6.376;-10.782;2023-07-13T14:43:43;10.82;;;7.40;;
56321;SDS011;42227;6.376;-10.782;2023-07-13T14:46:33;10.43;;;5.97;;
56321;SDS011;42227;6.376;-10.782;2023-07-13T14:49:04;8.45;;;6.03;;
56321;SDS011;42227;6.376;-10.782;2023-07-13T14:51:39;9.60;;;6.53;;
56321;SDS011;42227;6.376;-10.782;2023-07-13T14:54:14;9.15;;;6.07;;
56321;SDS011;42227;6.376;-10.782;2023-07-13T14:56:42;12.52;;;7.90;;
56321;SDS011;42227;6.376;-10.782;2023-07-13T14:59:11;10.35;;;6.88;;
56321;SDS011;42227;6.376;-10.782;2023-07-13T15:01:41;13.80;;;8.52;;
56321;SDS011;42227;6.376;-10.782;2023-07-13T15:04:16;10.82;;;8.55;;
56321;SDS011;42227;6.376;-10.782;2023-07-13T15:07:04;15.65;;;8.65;;
56321;SDS011;42227;6.376;-10.782;2023-07-13T15:09:35;11.60;;;8.13;;
56321;SDS011;42227;6.376;-10.782;2023-07-13T15:12:07;9.95;;;7.57;;
56321;SDS011;42227;6.376;-10.782;2023-07-13T15:17:20;14.20;;;9.57;;
56321;SDS011;42227;6.376;-10.782;2023-07-13T15:20:06;12.38;;;8.20;;
56321;SDS011;42227;6.376;-10.782;2023-07-13T15:22:58;13.60;;;8.77;;
56321;SDS011;42227;6.376;-10.782;2023-07-13T15:25:29;10.10;;;7.32;;
56321;SDS011;42227;6.376;-10.782;2023-07-13T15:27:59;12.95;;;7.45;;
56321;SDS011;42227;6.376;-10.782;2023-07-13T15:30:30;11.85;;;8.60;;
56321;SDS011;42227;6.376;-10.782;2023-07-13T15:33:09;13.98;;;8.07;;
56321;SDS011;42227;6.376;-10.782;2023-07-13T15:35:43;11.13;;;7.78;;
56321;SDS011;42227;6.376;-10.782;2023-07-13T15:38:34;12.75;;;8.05;;
56321;SDS011;42227;6.376;-10.782;2023-07-13T15:41:10;13.88;;;8.55;;
56321;SDS011;42227;6.376;-10.782;2023-07-13T15:43:42;13.18;;;7.97;;
56321;SDS011;42227;6.376;-10.782;2023-07-13T15:46:13;10.35;;;7.35;;
56321;SDS011;42227;6.376;-10.782;2023-07-13T15:48:42;11.88;;;7.15;;